Time;durP1;ratioP1;P1;durP2;ratioP2;P2;SDS_P1;SDS_P2;PMS_P1;PMS_P2;Temp;Humidity;BMP_temperature;BMP_pressure;BME280_temperature;BME280_humidity;BME280_pressure;Samples;Min_cycle;Max_cycle;Signal;HPM_P1;HPM_P2
2022/01/02 00:00:22;;;;;;;32.50;18.80;;;9.50;99.90;;;;;;4834221;28;10001202;-78
2022/01/02 00:02:57;;;;;;;33.30;20.02;;;9.50;99.90;;;;;;4958174;28;20244;-78
2022/01/02 00:05:23;;;;;;;35.63;21.00;;;9.40;99.90;;;;;;4967205;28;20121;-78
2022/01/02 00:08:02;;;;;;;37.97;20.38;;;9.40;99.90;;;;;;4962547;28;20047;-79
2022/01/02 00:10:37;;;;;;;39.88;20.48;;;9.40;99.90;;;;;;4966352;28;20122;-78
2022/01/02 00:13:03;;;;;;;40.58;21.42;;;9.30;99.90;;;;;;4967666;28;20053;-78
2022/01/02 00:15:29;;;;;;;37.22;20.40;;;9.30;99.90;;;;;;4970325;28;20022;-79
2022/01/02 00:17:59;;;;;;;42.78;21.02;;;9.30;99.90;;;;;;4963885;28;20110;-79
2022/01/02 00:20:32;;;;;;;33.92;20.02;;;9.20;99.90;;;;;;4966703;28;20058;-79
2022/01/02 00:23:06;;;;;;;40.25;21.17;;;9.20;99.90;;;;;;4967064;28;20031;-79
2022/01/02 00:25:41;;;;;;;37.65;20.90;;;9.20;99.90;;;;;;4965951;28;20054;-79
2022/01/02 00:28:10;;;;;;;38.20;20.75;;;9.20;99.90;;;;;;4968682;28;20043;-78
2022/01/02 00:30:36;;;;;;;34.28;19.95;;;9.20;99.90;;;;;;4969088;28;20027;-79
2022/01/02 00:33:02;;;;;;;39.22;20.27;;;9.20;99.90;;;;;;4965745;28;20511;-79
2022/01/02 00:35:27;;;;;;;36.00;20.40;;;9.20;99.90;;;;;;4968400;28;20027;-79
2022/01/02 00:37:53;;;;;;;43.40;21.13;;;9.20;99.90;;;;;;4958944;28;20031;-78
2022/01/02 00:40:19;;;;;;;37.67;20.75;;;9.20;99.90;;;;;;4969386;28;20113;-79
2022/01/02 00:42:47;;;;;;;40.05;21.20;;;9.10;99.90;;;;;;4969244;28;20479;-78
2022/01/02 00:45:18;;;;;;;40.85;22.27;;;9.10;99.90;;;;;;4971036;28;20554;-78
2022/01/02 00:47:49;;;;;;;38.40;20.90;;;9.10;99.90;;;;;;4970668;28;20415;-78
2022/01/02 00:50:20;;;;;;;37.92;20.30;;;9.10;99.90;;;;;;4966083;28;20038;-78
2022/01/02 00:52:48;;;;;;;41.58;21.58;;;9.10;99.90;;;;;;4965063;28;20557;-78
2022/01/02 00:55:19;;;;;;;40.78;21.08;;;9.10;99.90;;;;;;4968891;28;20030;-78
2022/01/02 00:58:01;;;;;;;34.95;19.85;;;9.20;99.90;;;;;;4967729;28;20054;-79
2022/01/02 01:00:28;;;;;;;36.92;20.45;;;9.10;99.90;;;;;;4965555;28;20027;-78
2022/01/02 01:02:59;;;;;;;37.03;20.17;;;9.20;99.90;;;;;;4960888;28;20334;-79
2022/01/02 01:05:30;;;;;;;39.28;20.70;;;9.10;99.90;;;;;;4963232;28;20510;-79
2022/01/02 01:07:58;;;;;;;38.85;20.00;;;9.10;99.90;;;;;;4964254;28;20557;-79
2022/01/02 01:10:27;;;;;;;32.42;18.40;;;9.10;99.90;;;;;;4965920;28;20228;-79
2022/01/02 01:12:55;;;;;;;36.67;19.77;;;9.00;99.90;;;;;;4972243;28;20023;-79
2022/01/02 01:15:22;;;;;;;34.75;19.40;;;9.00;99.90;;;;;;4964138;28;20062;-79
2022/01/02 01:17:49;;;;;;;34.88;18.58;;;9.00;99.90;;;;;;4976890;28;20022;-79
2022/01/02 01:20:15;;;;;;;33.63;18.38;;;9.00;99.90;;;;;;4966852;28;20120;-79
2022/01/02 01:22:42;;;;;;;33.50;17.88;;;8.90;99.90;;;;;;4965396;28;20051;-79
2022/01/02 01:25:15;;;;;;;30.42;17.05;;;9.00;99.90;;;;;;4969644;28;20113;-79
2022/01/02 01:27:41;;;;;;;31.25;16.83;;;8.90;99.90;;;;;;4968426;28;20617;-79
2022/01/02 01:30:08;;;;;;;32.95;17.30;;;8.90;99.90;;;;;;4960241;28;20138;-79
2022/01/02 01:32:34;;;;;;;32.95;16.92;;;8.90;99.90;;;;;;4965572;28;20749;-79
2022/01/02 01:35:02;;;;;;;29.98;16.55;;;8.90;99.90;;;;;;4969117;28;20570;-79
2022/01/02 01:37:28;;;;;;;30.60;16.48;;;8.90;99.90;;;;;;4963307;28;20030;-79
2022/01/02 01:39:53;;;;;;;28.98;16.02;;;8.90;99.90;;;;;;4966566;28;20101;-79
2022/01/02 01:42:29;;;;;;;31.85;16.50;;;8.90;99.90;;;;;;4963998;28;20026;-79
2022/01/02 01:47:33;;;;;;;27.65;15.68;;;8.80;99.90;;;;;;4969088;28;20494;-80
2022/01/02 01:49:58;;;;;;;31.48;16.90;;;8.70;99.90;;;;;;4963907;28;20046;-80
2022/01/02 01:52:24;;;;;;;32.47;17.05;;;8.70;99.90;;;;;;4964796;28;20495;-80
2022/01/02 01:54:50;;;;;;;33.55;17.17;;;8.70;99.90;;;;;;4967432;28;20034;-80
2022/01/02 01:57:16;;;;;;;29.63;16.30;;;8.70;99.90;;;;;;4966146;28;20113;-80
2022/01/02 01:59:42;;;;;;;31.63;16.25;;;8.70;99.90;;;;;;4962066;28;20263;-79
2022/01/02 02:02:08;;;;;;;30.27;15.13;;;8.70;99.90;;;;;;4957726;28;20043;-79
2022/01/02 02:04:33;;;;;;;30.58;16.10;;;8.70;99.90;;;;;;4962413;28;20035;-80
2022/01/02 02:07:00;;;;;;;30.27;15.73;;;8.70;99.90;;;;;;4960933;28;20054;-79
2022/01/02 02:09:30;;;;;;;32.20;16.05;;;8.70;99.90;;;;;;4956010;28;20107;-79
2022/01/02 02:11:59;;;;;;;29.55;16.08;;;8.70;99.90;;;;;;4963572;28;20039;-79
2022/01/02 02:14:25;;;;;;;34.25;16.45;;;8.80;99.90;;;;;;4960042;28;20035;-79
2022/01/02 02:16:51;;;;;;;31.23;16.10;;;8.80;99.90;;;;;;4964465;28;20391;-79
2022/01/02 02:19:17;;;;;;;31.27;15.98;;;8.80;99.90;;;;;;4968039;28;20027;-79
2022/01/02 02:21:43;;;;;;;32.55;17.05;;;8.70;99.90;;;;;;4963698;28;20096;-79
2022/01/02 02:24:08;;;;;;;29.80;16.55;;;8.80;99.90;;;;;;4985143;28;20151;-79
2022/01/02 02:26:37;;;;;;;30.40;16.23;;;8.70;99.90;;;;;;4966871;28;20550;-79
2022/01/02 02:29:04;;;;;;;28.85;15.82;;;8.70;99.90;;;;;;4966039;28;20035;-79
2022/01/02 02:31:30;;;;;;;37.42;16.92;;;8.70;99.90;;;;;;4966792;28;20179;-79
2022/01/02 02:33:56;;;;;;;34.47;17.10;;;8.60;99.90;;;;;;4963190;28;20503;-79
2022/01/02 02:36:21;;;;;;;26.42;16.17;;;8.60;99.90;;;;;;4961427;28;20037;-79
2022/01/02 02:38:47;;;;;;;32.72;16.25;;;8.70;99.90;;;;;;4969227;28;20184;-78
2022/01/02 02:41:13;;;;;;;36.70;16.88;;;8.70;99.90;;;;;;4967166;28;20023;-79
2022/01/02 02:49:04;;;;;;;31.25;16.58;;;8.60;99.90;;;;;;4968464;28;20046;-78
2022/01/02 02:54:21;;;;;;;29.98;15.88;;;8.60;99.90;;;;;;4961770;28;20478;-78
2022/01/02 02:56:59;;;;;;;33.42;16.90;;;8.50;99.90;;;;;;4965214;28;20268;-78
2022/01/02 02:59:27;;;;;;;34.45;17.17;;;8.50;99.90;;;;;;4964141;28;20111;-78
2022/01/02 03:01:54;;;;;;;29.00;16.77;;;8.50;99.90;;;;;;4962279;28;20037;-78
2022/01/02 03:04:20;;;;;;;33.08;16.92;;;8.60;99.90;;;;;;4967880;28;20043;-78
2022/01/02 03:06:46;;;;;;;31.63;17.33;;;8.50;99.90;;;;;;4959042;28;20035;-78
2022/01/02 03:09:13;;;;;;;31.05;16.58;;;8.60;99.90;;;;;;4966833;28;20699;-78
2022/01/02 03:11:40;;;;;;;36.10;17.05;;;8.60;99.90;;;;;;4965579;28;20322;-78
2022/01/02 03:14:09;;;;;;;32.20;17.48;;;8.60;99.90;;;;;;4961529;28;20491;-78
2022/01/02 03:16:35;;;;;;;36.90;18.20;;;8.50;99.90;;;;;;4967953;28;20118;-78
2022/01/02 03:19:00;;;;;;;30.45;16.65;;;8.60;99.90;;;;;;4966960;28;20114;-78
2022/01/02 03:21:26;;;;;;;31.67;17.65;;;8.60;99.90;;;;;;4964776;28;20039;-79
2022/01/02 03:23:52;;;;;;;35.65;18.85;;;8.60;99.90;;;;;;4969593;28;20061;-78
2022/01/02 03:26:18;;;;;;;32.83;17.83;;;8.60;99.90;;;;;;4969066;28;20047;-78
2022/01/02 03:28:45;;;;;;;37.63;18.25;;;8.60;99.90;;;;;;4966890;28;20439;-78
2022/01/02 03:31:10;;;;;;;37.95;18.92;;;8.60;99.90;;;;;;4959498;28;20065;-78
2022/01/02 03:33:37;;;;;;;34.42;18.63;;;8.60;99.90;;;;;;4962538;28;20027;-78
2022/01/02 03:36:04;;;;;;;37.13;19.90;;;8.60;99.90;;;;;;4957989;28;20070;-79
2022/01/02 03:38:30;;;;;;;34.25;18.77;;;8.60;99.90;;;;;;4966438;28;20387;-79
2022/01/02 03:40:56;;;;;;;36.13;19.52;;;8.60;99.90;;;;;;4969510;28;20038;-78
2022/01/02 03:43:21;;;;;;;30.23;17.63;;;8.60;99.90;;;;;;4963454;28;20035;-78
2022/01/02 03:45:47;;;;;;;35.10;18.48;;;8.60;99.90;;;;;;4959225;28;20479;-78
2022/01/02 03:48:13;;;;;;;31.27;18.05;;;8.60;99.90;;;;;;4962176;28;20089;-78
2022/01/02 03:50:39;;;;;;;33.72;17.48;;;8.60;99.90;;;;;;4960309;28;20503;-78
2022/01/02 03:53:05;;;;;;;32.65;17.92;;;8.60;99.90;;;;;;4961570;28;20114;-78
2022/01/02 03:55:31;;;;;;;35.05;18.55;;;8.60;99.90;;;;;;4963412;28;20039;-78
2022/01/02 03:57:57;;;;;;;37.65;19.20;;;8.60;99.90;;;;;;4965750;28;20084;-78
2022/01/02 04:00:23;;;;;;;31.20;18.13;;;8.60;99.90;;;;;;4959674;28;20118;-79
2022/01/02 04:02:49;;;;;;;32.22;19.17;;;8.50;99.90;;;;;;4967710;28;20058;-78
2022/01/02 04:05:16;;;;;;;32.60;19.48;;;8.50;99.90;;;;;;4963371;28;20459;-78
2022/01/02 04:07:43;;;;;;;35.25;19.27;;;8.50;99.90;;;;;;4967536;28;20466;-78
2022/01/02 04:10:17;;;;;;;32.20;18.60;;;8.50;99.90;;;;;;4957467;28;20035;-79
2022/01/02 04:12:43;;;;;;;37.53;19.27;;;8.60;99.90;;;;;;4967106;28;20351;-78
2022/01/02 04:15:10;;;;;;;32.92;18.30;;;8.60;99.90;;;;;;4968420;28;20035;-78
2022/01/02 04:17:37;;;;;;;33.45;19.08;;;8.60;99.90;;;;;;4964138;28;20106;-78
2022/01/02 04:20:06;;;;;;;37.35;19.35;;;8.50;99.90;;;;;;4961906;28;20196;-78
2022/01/02 04:22:32;;;;;;;38.78;19.20;;;8.50;99.90;;;;;;4960744;28;20395;-78
2022/01/02 04:24:59;;;;;;;37.28;20.67;;;8.50;99.90;;;;;;4965192;28;20050;-78
2022/01/02 04:27:24;;;;;;;38.30;20.25;;;8.50;99.90;;;;;;4967496;28;20042;-77
2022/01/02 04:29:50;;;;;;;38.08;21.70;;;8.50;99.90;;;;;;4963452;28;20045;-78
2022/01/02 04:32:17;;;;;;;35.20;20.80;;;8.50;99.90;;;;;;4956104;28;20035;-78
2022/01/02 04:34:43;;;;;;;43.45;23.67;;;8.50;99.90;;;;;;4960282;28;20067;-78
2022/01/02 04:37:10;;;;;;;39.40;22.10;;;8.50;99.90;;;;;;4963115;28;20113;-78
2022/01/02 04:39:36;;;;;;;44.90;23.92;;;8.40;99.90;;;;;;4964908;28;20073;-78
2022/01/02 04:42:02;;;;;;;43.45;23.88;;;8.40;99.90;;;;;;4964500;28;20479;-79
2022/01/02 04:44:27;;;;;;;48.75;24.42;;;8.40;99.90;;;;;;4961306;28;20030;-79
2022/01/02 04:46:53;;;;;;;41.88;24.35;;;8.40;99.90;;;;;;4957715;28;20069;-78
2022/01/02 04:49:19;;;;;;;42.42;24.90;;;8.40;99.90;;;;;;4959213;28;20114;-79
2022/01/02 04:51:45;;;;;;;46.60;25.13;;;8.40;99.90;;;;;;4961894;28;20027;-79
2022/01/02 04:54:11;;;;;;;48.13;27.15;;;8.30;99.90;;;;;;4961850;28;20499;-79
2022/01/02 04:56:37;;;;;;;52.13;26.75;;;8.30;99.90;;;;;;4971643;28;20038;-79
2022/01/02 04:59:03;;;;;;;44.88;26.30;;;8.30;99.90;;;;;;4955924;28;20031;-78
2022/01/02 05:01:28;;;;;;;52.97;28.00;;;8.30;99.90;;;;;;4961905;28;20502;-78
2022/01/02 05:03:54;;;;;;;46.67;27.27;;;8.30;99.90;;;;;;4960773;28;20041;-78
2022/01/02 05:06:20;;;;;;;47.55;26.60;;;8.30;99.90;;;;;;4964608;28;20454;-78
2022/01/02 05:08:46;;;;;;;47.95;27.00;;;8.30;99.90;;;;;;4970039;28;20053;-78
2022/01/02 05:11:13;;;;;;;45.65;27.10;;;8.30;99.90;;;;;;4965939;28;20256;-77
2022/01/02 05:13:39;;;;;;;47.20;27.63;;;8.30;99.90;;;;;;4969212;28;20561;-79
2022/01/02 05:16:05;;;;;;;50.15;28.45;;;8.30;99.90;;;;;;4970832;28;20039;-80
2022/01/02 05:18:31;;;;;;;48.75;28.70;;;8.30;99.90;;;;;;4967076;28;20030;-80
2022/01/02 05:20:57;;;;;;;49.08;28.02;;;8.30;99.90;;;;;;4964072;28;20477;-80
2022/01/02 05:23:22;;;;;;;47.10;27.70;;;8.30;99.90;;;;;;4961823;28;20034;-79
2022/01/02 05:25:48;;;;;;;50.33;27.65;;;8.30;99.90;;;;;;4968420;28;20069;-80
2022/01/02 05:28:14;;;;;;;49.00;27.27;;;8.30;99.90;;;;;;4971031;28;20035;-80
2022/01/02 05:30:40;;;;;;;47.00;28.13;;;8.20;99.90;;;;;;4975432;28;20553;-80
2022/01/02 05:33:07;;;;;;;47.92;27.48;;;8.20;99.90;;;;;;4965314;28;20082;-80
2022/01/02 05:35:32;;;;;;;47.85;27.35;;;8.30;99.90;;;;;;4966395;28;20023;-80
2022/01/02 05:38:01;;;;;;;46.15;27.27;;;8.20;99.90;;;;;;4965103;28;20031;-80
2022/01/02 05:40:32;;;;;;;50.97;28.13;;;8.20;99.90;;;;;;4964744;28;20034;-80
2022/01/02 05:43:07;;;;;;;48.13;28.92;;;8.20;99.90;;;;;;4965264;28;20057;-80
2022/01/02 05:45:33;;;;;;;44.85;26.70;;;8.20;99.90;;;;;;4965990;28;20031;-80
2022/01/02 05:48:01;;;;;;;51.58;29.90;;;8.30;99.90;;;;;;4965196;28;20384;-80
2022/01/02 05:50:27;;;;;;;46.35;27.17;;;8.30;99.90;;;;;;4959818;28;20403;-80
2022/01/02 05:52:52;;;;;;;45.95;28.30;;;8.30;99.90;;;;;;4969116;28;20019;-80
2022/01/02 05:55:18;;;;;;;49.88;28.02;;;8.30;99.90;;;;;;4965416;28;20019;-80
2022/01/02 05:57:43;;;;;;;47.40;28.15;;;8.30;99.90;;;;;;4957915;28;20574;-80
2022/01/02 06:00:10;;;;;;;48.60;28.00;;;8.30;99.90;;;;;;4966983;28;20117;-80
2022/01/02 06:02:36;;;;;;;49.30;28.75;;;8.30;99.90;;;;;;4969064;28;20293;-80
2022/01/02 06:05:03;;;;;;;45.85;27.52;;;8.30;99.90;;;;;;4963012;28;20079;-80
2022/01/02 06:07:31;;;;;;;44.55;26.58;;;8.30;99.90;;;;;;4965861;28;20042;-80
2022/01/02 06:09:57;;;;;;;49.22;28.38;;;8.30;99.90;;;;;;4969552;28;20063;-80
2022/01/02 06:12:25;;;;;;;46.60;26.88;;;8.30;99.90;;;;;;4963553;28;20542;-79
2022/01/02 06:14:51;;;;;;;47.33;27.35;;;8.40;99.90;;;;;;4967149;28;20034;-80
2022/01/02 06:17:17;;;;;;;45.08;26.73;;;8.30;99.90;;;;;;4963490;28;20030;-79
2022/01/02 06:19:42;;;;;;;45.00;26.27;;;8.30;99.90;;;;;;4957308;28;20028;-80
2022/01/02 06:22:08;;;;;;;44.03;25.95;;;8.40;99.90;;;;;;4963772;28;20081;-80
2022/01/02 06:24:33;;;;;;;44.60;26.55;;;8.40;99.90;;;;;;4966887;28;20031;-79
2022/01/02 06:26:59;;;;;;;44.00;25.60;;;8.40;99.90;;;;;;4958648;28;20018;-79
2022/01/02 06:29:25;;;;;;;46.30;25.85;;;8.40;99.90;;;;;;4963054;28;20027;-79
2022/01/02 06:31:50;;;;;;;40.90;25.45;;;8.40;99.90;;;;;;4959511;28;20399;-79
2022/01/02 06:34:16;;;;;;;43.88;26.17;;;8.40;99.90;;;;;;4966321;28;20024;-79
2022/01/02 06:36:43;;;;;;;41.00;24.80;;;8.40;99.90;;;;;;4968458;28;20046;-79
2022/01/02 06:39:08;;;;;;;45.42;25.95;;;8.50;99.90;;;;;;4971164;28;20387;-80
2022/01/02 06:41:34;;;;;;;42.22;25.55;;;8.40;99.90;;;;;;4961917;28;20050;-79
2022/01/02 06:44:00;;;;;;;43.63;26.52;;;8.40;99.90;;;;;;4960168;28;20089;-80
2022/01/02 06:46:25;;;;;;;41.65;25.35;;;8.40;99.90;;;;;;4956231;28;20053;-80
2022/01/02 06:48:51;;;;;;;44.17;25.50;;;8.40;99.90;;;;;;4962836;28;20035;-79
2022/01/02 06:51:17;;;;;;;41.90;24.85;;;8.40;99.90;;;;;;4958357;28;20024;-79
2022/01/02 06:53:42;;;;;;;45.28;24.75;;;8.40;99.90;;;;;;4956996;28;20027;-79
2022/01/02 06:56:08;;;;;;;39.00;24.90;;;8.40;99.90;;;;;;4968782;28;20019;-80
2022/01/02 06:58:38;;;;;;;43.63;25.45;;;8.40;99.90;;;;;;4958970;28;20027;-79
2022/01/02 07:01:04;;;;;;;43.20;25.10;;;8.40;99.90;;;;;;4956585;28;20026;-80
2022/01/02 07:03:30;;;;;;;45.63;25.75;;;8.40;99.90;;;;;;4959479;28;20446;-79
2022/01/02 07:05:56;;;;;;;43.88;25.08;;;8.40;99.90;;;;;;4954941;28;20086;-79
2022/01/02 07:08:21;;;;;;;38.10;24.00;;;8.40;99.90;;;;;;4958522;28;20178;-80
2022/01/02 07:10:47;;;;;;;41.20;24.55;;;8.40;99.90;;;;;;4961888;28;20424;-79
2022/01/02 07:13:13;;;;;;;42.47;25.88;;;8.40;99.90;;;;;;4966178;28;20730;-80
2022/01/02 07:15:38;;;;;;;45.60;26.92;;;8.40;99.90;;;;;;4967446;28;20089;-79
2022/01/02 07:18:04;;;;;;;51.58;27.45;;;8.50;99.90;;;;;;4956058;28;20027;-79
2022/01/02 07:20:29;;;;;;;45.60;26.70;;;8.40;99.90;;;;;;4963091;28;20503;-79
2022/01/02 07:22:55;;;;;;;43.53;25.08;;;8.40;99.90;;;;;;4957345;28;20363;-79
2022/01/02 07:25:20;;;;;;;44.08;24.55;;;8.50;99.90;;;;;;4958717;28;20034;-79
2022/01/02 07:27:46;;;;;;;41.08;24.02;;;8.50;99.90;;;;;;4957474;28;20522;-76
2022/01/02 07:30:12;;;;;;;42.17;24.15;;;8.40;99.90;;;;;;4962883;28;20066;-76
2022/01/02 07:32:39;;;;;;;44.35;24.48;;;8.40;99.90;;;;;;4956059;28;20027;-76
2022/01/02 07:35:06;;;;;;;41.22;24.08;;;8.40;99.90;;;;;;4960429;28;20027;-76
2022/01/02 07:37:33;;;;;;;42.28;24.05;;;8.50;99.90;;;;;;4271067;28;10000776;-78
2022/01/02 07:39:59;;;;;;;47.65;26.30;;;8.40;99.90;;;;;;4951152;28;20026;-78
2022/01/02 07:42:25;;;;;;;38.90;24.13;;;8.40;99.90;;;;;;4960121;28;20057;-79
2022/01/02 07:44:50;;;;;;;49.60;27.20;;;8.40;99.90;;;;;;4961672;28;20411;-80
2022/01/02 07:47:16;;;;;;;40.60;23.63;;;8.40;99.90;;;;;;4961037;28;20069;-80
2022/01/02 07:49:41;;;;;;;39.63;23.85;;;8.40;99.90;;;;;;4956490;28;20042;-80
2022/01/02 07:52:07;;;;;;;44.80;26.80;;;8.40;99.90;;;;;;4956884;28;20542;-79
2022/01/02 07:54:32;;;;;;;38.95;23.77;;;8.40;99.90;;;;;;4954592;28;20034;-79
2022/01/02 07:56:58;;;;;;;41.42;24.88;;;8.40;99.90;;;;;;4953894;28;20784;-79
2022/01/02 07:59:24;;;;;;;42.92;25.98;;;8.40;99.90;;;;;;4964203;28;20059;-79
2022/01/02 08:01:49;;;;;;;42.22;24.42;;;8.40;99.90;;;;;;4969969;28;20114;-79
2022/01/02 08:04:15;;;;;;;41.50;23.63;;;8.40;99.90;;;;;;4956426;28;20050;-78
2022/01/02 08:06:41;;;;;;;42.67;24.77;;;8.40;99.90;;;;;;4961104;28;20581;-79
2022/01/02 08:09:06;;;;;;;43.15;25.50;;;8.40;99.90;;;;;;4963437;28;20052;-79
2022/01/02 08:11:32;;;;;;;45.38;25.63;;;8.40;99.90;;;;;;4962832;28;20478;-79
2022/01/02 08:13:58;;;;;;;42.60;23.95;;;8.30;99.90;;;;;;4952237;28;20031;-80
2022/01/02 08:16:23;;;;;;;46.35;25.75;;;8.30;99.90;;;;;;4962580;28;20023;-79
2022/01/02 08:18:49;;;;;;;43.65;25.95;;;8.30;99.90;;;;;;4961953;28;20030;-79
2022/01/02 08:21:15;;;;;;;45.83;26.38;;;8.30;99.90;;;;;;4957485;28;20121;-78
2022/01/02 08:23:40;;;;;;;43.08;25.55;;;8.20;99.90;;;;;;4958397;28;20039;-78
2022/01/02 08:26:06;;;;;;;41.25;24.58;;;8.30;99.90;;;;;;4960206;28;20414;-79
2022/01/02 08:28:32;;;;;;;40.13;23.52;;;8.30;99.90;;;;;;4956014;28;20035;-79
2022/01/02 08:30:57;;;;;;;48.55;24.05;;;8.30;99.90;;;;;;4956057;28;20027;-79
2022/01/02 08:33:23;;;;;;;43.22;24.90;;;8.30;99.90;;;;;;4956946;28;20122;-80
2022/01/02 08:35:49;;;;;;;35.67;21.77;;;8.30;99.90;;;;;;4963410;28;20093;-79
2022/01/02 08:38:15;;;;;;;39.95;22.77;;;8.30;99.90;;;;;;4967898;28;20752;-78
2022/01/02 08:40:41;;;;;;;36.05;21.70;;;8.30;99.90;;;;;;4958778;28;20300;-79
2022/01/02 08:43:08;;;;;;;35.45;21.17;;;8.40;99.90;;;;;;4959837;28;20140;-78
2022/01/02 08:45:35;;;;;;;33.72;19.85;;;8.40;99.90;;;;;;4966978;28;20522;-79
2022/01/02 08:48:02;;;;;;;32.13;18.73;;;8.40;99.90;;;;;;4961686;28;20043;-77
2022/01/02 08:50:27;;;;;;;35.63;18.73;;;8.40;99.90;;;;;;4966567;28;20053;-77
2022/01/02 08:52:53;;;;;;;32.17;17.85;;;8.50;99.90;;;;;;4978963;28;20526;-76
2022/01/02 08:55:19;;;;;;;28.00;16.88;;;8.50;99.90;;;;;;4961944;28;20546;-76
2022/01/02 08:57:44;;;;;;;31.90;17.92;;;8.50;99.90;;;;;;4952235;29;20047;-76
2022/01/02 09:00:11;;;;;;;26.25;16.17;;;8.50;99.90;;;;;;4962268;28;20038;-76
2022/01/02 09:02:37;;;;;;;27.52;16.38;;;8.50;99.90;;;;;;4963748;28;20034;-76
2022/01/02 09:05:03;;;;;;;29.92;17.08;;;8.50;99.90;;;;;;4969299;28;20034;-76
2022/01/02 09:07:29;;;;;;;29.38;16.23;;;8.60;99.90;;;;;;4970920;28;20518;-76
2022/01/02 09:09:54;;;;;;;25.38;15.65;;;8.60;99.90;;;;;;4971375;28;20062;-76
2022/01/02 09:12:20;;;;;;;25.23;15.60;;;8.60;99.90;;;;;;4969199;28;20110;-76
2022/01/02 09:14:45;;;;;;;27.65;16.50;;;8.60;99.90;;;;;;4968453;28;20106;-76
2022/01/02 09:17:11;;;;;;;26.73;15.18;;;8.60;99.90;;;;;;4971336;28;20043;-76
2022/01/02 09:19:37;;;;;;;28.30;15.85;;;8.60;99.90;;;;;;4969100;28;20019;-76
2022/01/02 09:22:03;;;;;;;22.95;14.68;;;8.60;99.90;;;;;;4970789;28;20023;-77
2022/01/02 09:24:29;;;;;;;25.52;14.38;;;8.60;99.90;;;;;;4969118;28;20034;-77
2022/01/02 09:26:55;;;;;;;25.35;13.85;;;8.70;99.90;;;;;;4965979;28;20026;-76
2022/01/02 09:29:21;;;;;;;23.00;13.35;;;8.70;99.90;;;;;;4951851;29;20034;-75
2022/01/02 09:31:47;;;;;;;20.85;12.85;;;8.70;99.90;;;;;;4977666;28;20042;-75
2022/01/02 09:34:12;;;;;;;20.55;12.63;;;8.70;99.90;;;;;;4978614;28;20025;-75
2022/01/02 09:36:38;;;;;;;20.52;12.25;;;8.80;99.90;;;;;;4970331;28;20130;-76
2022/01/02 09:39:04;;;;;;;20.85;12.77;;;8.80;99.90;;;;;;4956409;28;20039;-76
2022/01/02 09:41:31;;;;;;;23.80;13.57;;;8.80;99.90;;;;;;4957999;28;20045;-75
2022/01/02 09:43:57;;;;;;;24.00;12.60;;;8.90;99.90;;;;;;4969771;28;20522;-75
2022/01/02 09:46:26;;;;;;;23.65;13.63;;;8.90;99.90;;;;;;4970011;28;20042;-75
2022/01/02 09:48:53;;;;;;;20.65;11.80;;;8.90;99.90;;;;;;4954233;28;20110;-75
2022/01/02 09:51:24;;;;;;;20.50;12.23;;;8.90;99.90;;;;;;4967105;28;20312;-75
2022/01/02 09:53:51;;;;;;;20.58;12.15;;;9.00;99.90;;;;;;4965039;28;20030;-75
2022/01/02 09:56:17;;;;;;;19.95;12.23;;;8.90;99.90;;;;;;4968508;28;20172;-75
2022/01/02 09:58:44;;;;;;;19.77;12.23;;;9.00;99.90;;;;;;4951660;28;20892;-74
2022/01/02 10:01:21;;;;;;;21.77;12.45;;;9.00;99.90;;;;;;4945805;28;20034;-75
2022/01/02 10:03:53;;;;;;;21.70;11.80;;;9.10;99.90;;;;;;4943385;28;20057;-75
2022/01/02 10:06:19;;;;;;;19.17;11.52;;;9.00;99.90;;;;;;4960377;28;20067;-75
2022/01/02 10:08:46;;;;;;;21.13;10.82;;;9.10;99.90;;;;;;4963864;28;20057;-75
2022/01/02 10:11:22;;;;;;;18.50;11.52;;;9.20;99.90;;;;;;4969131;28;20026;-75
2022/01/02 10:13:57;;;;;;;17.25;10.93;;;9.20;99.90;;;;;;4962353;28;20034;-74
2022/01/02 10:16:34;;;;;;;18.45;11.30;;;9.30;99.90;;;;;;4960958;28;20292;-74
2022/01/02 10:19:29;;;;;;;18.10;11.57;;;9.30;99.90;;;;;;4964253;28;20538;-75
2022/01/02 10:22:06;;;;;;;16.80;10.75;;;9.20;99.90;;;;;;4966617;28;20467;-74
2022/01/02 10:24:40;;;;;;;16.42;10.85;;;9.20;99.90;;;;;;4967450;28;20395;-74
2022/01/02 10:27:11;;;;;;;18.02;10.70;;;9.20;99.90;;;;;;4969643;28;20054;-74
2022/01/02 10:29:55;;;;;;;16.02;10.65;;;9.20;99.90;;;;;;4964264;28;20026;-74
2022/01/02 10:32:37;;;;;;;15.95;10.90;;;;;;;;;;4961904;28;20479;-75
2022/01/02 10:35:17;;;;;;;19.30;10.48;;;9.30;99.90;;;;;;4966506;28;20039;-75
2022/01/02 10:37:53;;;;;;;16.95;10.82;;;9.10;99.90;;;;;;4967275;28;20030;-75
2022/01/02 10:40:38;;;;;;;15.63;10.23;;;9.20;99.90;;;;;;4977041;28;20117;-75
2022/01/02 10:43:08;;;;;;;16.00;10.23;;;9.20;99.90;;;;;;4970623;28;20225;-75
2022/01/02 10:45:34;;;;;;;14.95;10.40;;;9.20;99.90;;;;;;4968894;28;20419;-75
2022/01/02 10:48:00;;;;;;;14.48;9.82;;;9.20;99.90;;;;;;4950984;28;20070;-76
2022/01/02 10:50:25;;;;;;;17.95;10.38;;;9.20;99.90;;;;;;4966318;28;20065;-75
2022/01/02 10:52:51;;;;;;;15.85;10.82;;;9.20;99.90;;;;;;4969096;28;20049;-75
2022/01/02 10:55:22;;;;;;;19.75;11.95;;;9.20;99.90;;;;;;4960440;28;20488;-75
2022/01/02 10:57:50;;;;;;;17.52;12.73;;;9.20;99.90;;;;;;4968811;28;20027;-75
2022/01/02 11:00:18;;;;;;;20.45;12.27;;;9.20;99.90;;;;;;4966641;28;20035;-75
2022/01/02 11:02:44;;;;;;;16.10;10.77;;;9.20;99.90;;;;;;4968663;28;20082;-75
2022/01/02 11:05:12;;;;;;;18.98;10.50;;;9.20;99.90;;;;;;4968946;28;20491;-75
2022/01/02 11:07:45;;;;;;;17.73;10.80;;;9.20;99.90;;;;;;4957161;28;20089;-75
2022/01/02 11:10:14;;;;;;;17.40;10.60;;;9.20;99.90;;;;;;4968833;28;20046;-75
2022/01/02 11:12:41;;;;;;;16.38;10.13;;;9.30;99.90;;;;;;4968699;28;20499;-75
2022/01/02 11:15:09;;;;;;;17.67;10.48;;;9.20;99.90;;;;;;4959121;28;20096;-75
2022/01/02 11:17:35;;;;;;;16.90;10.18;;;9.20;99.90;;;;;;4968593;28;20550;-75
2022/01/02 11:20:10;;;;;;;14.25;9.70;;;9.20;99.90;;;;;;4967019;28;20173;-75
2022/01/02 11:22:42;;;;;;;16.38;10.25;;;9.20;99.90;;;;;;4966925;28;20038;-75
2022/01/02 11:25:20;;;;;;;18.38;9.35;;;9.20;99.90;;;;;;4965211;28;20523;-74
2022/01/02 11:28:02;;;;;;;13.60;9.35;;;9.10;99.90;;;;;;4966129;28;20030;-75
2022/01/02 11:30:31;;;;;;;12.02;8.63;;;9.20;99.90;;;;;;4965443;28;20086;-75
2022/01/02 11:33:06;;;;;;;11.70;7.95;;;9.20;99.90;;;;;;4967817;28;20051;-74
2022/01/02 11:35:33;;;;;;;10.23;7.30;;;9.20;99.90;;;;;;4966825;28;20034;-74
2022/01/02 11:38:03;;;;;;;13.05;8.20;;;9.20;99.90;;;;;;4954616;28;20019;-74
2022/01/02 11:40:58;;;;;;;13.32;8.65;;;9.20;99.90;;;;;;4974134;28;20023;-74
2022/01/02 11:43:35;;;;;;;15.18;10.30;;;9.20;99.90;;;;;;4971047;28;20029;-75
2022/01/02 11:46:18;;;;;;;20.42;13.98;;;9.20;99.90;;;;;;4966831;28;20031;-74
2022/01/02 11:49:25;;;;;;;16.38;9.02;;;9.30;99.90;;;;;;4968097;28;20816;-75
2022/01/02 11:52:05;;;;;;;12.05;7.32;;;9.30;99.90;;;;;;4963281;28;20259;-75
2022/01/02 11:54:39;;;;;;;12.40;7.68;;;9.20;99.90;;;;;;4962913;28;20027;-75
2022/01/02 11:57:18;;;;;;;12.07;8.07;;;9.30;99.90;;;;;;4968121;28;20035;-75
2022/01/02 11:59:44;;;;;;;13.15;7.72;;;9.20;99.90;;;;;;4968363;28;20034;-74
2022/01/02 12:02:12;;;;;;;13.00;8.98;;;9.10;99.90;;;;;;4963250;28;20039;-75
2022/01/02 12:07:34;;;;;;;12.82;7.95;;;9.10;99.90;;;;;;4966434;28;20154;-75
2022/01/02 12:10:20;;;;;;;14.48;7.95;;;9.10;99.90;;;;;;4964353;28;20026;-74
2022/01/02 12:13:20;;;;;;;11.63;7.93;;;9.10;99.90;;;;;;4966446;28;20038;-75
2022/01/02 12:15:46;;;;;;;11.48;7.28;;;9.20;99.90;;;;;;4980371;28;20490;-75
2022/01/02 12:18:25;;;;;;;10.27;7.57;;;9.40;99.90;;;;;;4987469;28;20026;-75
2022/01/02 12:20:56;;;;;;;12.73;7.82;;;9.50;99.90;;;;;;4967845;28;20050;-75
2022/01/02 12:23:40;;;;;;;12.57;7.68;;;9.50;99.90;;;;;;4959126;28;20039;-75
2022/01/02 12:26:08;;;;;;;;;;;9.60;99.90;;;;;;4963785;28;20027;-75
2022/01/02 12:29:00;;;;;;;12.80;7.72;;;9.70;99.90;;;;;;4964013;28;19968;-75
2022/01/02 12:31:41;;;;;;;10.88;7.47;;;9.80;99.90;;;;;;4967248;28;20062;-75
2022/01/02 12:34:12;;;;;;;10.57;7.40;;;9.80;99.90;;;;;;4981782;28;20227;-75
2022/01/02 12:36:41;;;;;;;11.30;7.75;;;9.90;99.90;;;;;;4959647;28;20101;-75
2022/01/02 12:39:15;;;;;;;11.05;7.60;;;9.80;99.90;;;;;;4967240;28;20136;-75
2022/01/02 12:41:44;;;;;;;19.75;7.40;;;9.90;99.90;;;;;;4967094;28;20023;-75
2022/01/02 12:44:11;;;;;;;11.82;7.25;;;9.90;99.90;;;;;;4967630;28;20035;-75
2022/01/02 12:46:44;;;;;;;12.32;7.72;;;9.90;99.90;;;;;;4965616;28;20038;-74
2022/01/02 12:49:21;;;;;;;10.85;7.30;;;9.90;99.90;;;;;;4967548;28;20270;-75
2022/01/02 12:51:48;;;;;;;13.45;7.70;;;9.90;99.90;;;;;;4951492;28;20027;-75
2022/01/02 12:54:19;;;;;;;12.73;7.53;;;9.90;99.90;;;;;;4948523;28;20027;-75
2022/01/02 12:56:46;;;;;;;10.32;7.05;;;10.00;99.90;;;;;;4966753;28;20092;-75